Data for 05/06/2008

Time Sea-Level Adjusted Pressure Absolute Pressure Temperature Relative Humidity Dew Point   
(mb) (inHg) (mb) (inHg) (C) (F) (%) (C) (F)
00:05 1015 29.97 844 24.92 12.2 53.9 50 2.2 35.9
00:10 1015 29.97 844 24.92 12 53.6 50 2 35.7
00:15 1015 29.97 844 24.92 11.9 53.4 51 2 35.7
00:20 1015 29.97 844 24.92 11.7 53 51 2 35.6
00:25 1015 29.97 844 24.92 11.5 52.7 51 1.9 35.4
00:30 1015 29.97 844 24.92 11.4 52.5 52 2.1 35.7
00:35 1015 29.97 844 24.92 11.2 52.2 53 2.1 35.8
00:40 1015 29.97 844 24.92 11.1 52 54 2.2 35.9
00:45 1015 29.97 844 24.92 11 51.8 54 2.2 35.9
00:50 1015 29.97 844 24.92 11 51.7 55 2.2 35.9
00:55 1015 29.97 844 24.92 10.9 51.7 55 2.3 36.1
01:00 1015 29.97 844 24.92 10.8 51.4 55 2.3 36.1
01:05 1015 29.97 844 24.92 10.7 51.3 56 2.4 36.3
01:10 1015 29.97 844 24.92 10.4 50.7 57 2.2 35.9
01:15 1015 29.97 844 24.92 10.3 50.5 57 2.1 35.8
01:20 1015 29.97 844 24.92 10 50 57 1.9 35.4
01:25 1015 29.97 844 24.92 9.6 49.2 58 1.8 35.3
01:30 1015 29.97 844 24.92 9.3 48.7 59 1.6 35
01:35 1015 29.97 844 24.92 9.1 48.3 60 1.7 35.1
01:40 1015 29.97 844 24.92 9 48.2 60 1.6 34.9
01:45 1015 29.97 844 24.92 8.9 47.9 60 1.5 34.6
01:50 1015 29.97 844 24.92 8.7 47.7 60 1.5 34.7
01:55 1015 29.97 844 24.92 8.6 47.5 61 1.5 34.7
02:00 1015 29.97 844 24.92 8.5 47.2 62 1.5 34.7
02:05 1015 29.97 844 24.92 8.5 47.2 62 1.7 35
02:10 1015 29.97 844 24.92 8.4 47.1 63 1.8 35.2
02:15 1015 29.97 844 24.92 8.4 47.1 63 1.7 35
02:20 1015 29.97 844 24.92 8.5 47.2 63 1.9 35.4
02:25 1015 29.97 844 24.92 8.4 47.2 63 1.8 35.3
02:30 1015 29.97 844 24.92 8.6 47.5 61 1.7 35
02:35 1015 29.97 844 24.92 8.9 48 61 1.9 35.5
02:40 1015 29.97 844 24.92 8.9 48 61 1.9 35.4
02:45 1015 29.97 844 24.92 8.9 48 62 2 35.6
02:50 1014 29.94 844 24.92 8.9 48 62 2 35.5
02:55 1014 29.94 844 24.92 8.9 48.1 61 2 35.5
03:00 1014 29.94 844 24.92 8.9 48.1 60 1.7 35.1
03:05 1014 29.94 844 24.92 9.1 48.3 60 1.7 35
03:10 1014 29.94 844 24.92 9.3 48.7 58 1.6 34.8
03:15 1014 29.94 844 24.92 9.2 48.6 60 1.8 35.3
03:20 1014 29.94 844 24.92 9 48.3 60 1.7 35.1
03:25 1014 29.94 843 24.89 8.8 47.9 61 1.8 35.2
03:30 1014 29.94 843 24.89 8.5 47.2 63 1.8 35.3
03:35 1014 29.94 843 24.89 8 46.4 64 1.6 34.9
03:40 1014 29.94 843 24.89 7.7 45.9 64 1.4 34.5
03:45 1014 29.94 843 24.89 7.7 45.9 63 1.2 34.1
03:50 1014 29.94 843 24.89 7.8 46 62 1 33.8
03:55 1014 29.94 843 24.89 7.5 45.5 63 1 33.7
04:00 1014 29.94 843 24.89 7.3 45.1 64 0.8 33.5
04:05 1014 29.94 843 24.89 7.2 45 64 0.8 33.4
04:10 1014 29.94 843 24.89 7.2 44.9 64 0.9 33.6
04:15 1014 29.94 843 24.89 7.1 44.8 63 0.6 33.2
04:20 1014 29.94 843 24.89 7.3 45.1 63 0.8 33.4
04:25 1014 29.94 843 24.89 7.3 45.2 64 1 33.8
04:30 1014 29.94 844 24.92 7.6 45.6 63 1.1 33.9
04:35 1014 29.94 844 24.92 7.6 45.6 64 1.2 34.1
04:40 1014 29.94 844 24.92 7.6 45.6 64 1.1 34
04:45 1014 29.94 844 24.92 7.6 45.6 64 1.2 34.2
04:50 1014 29.94 844 24.92 7.3 45.2 65 1.2 34.2
04:55 1014 29.94 844 24.92 7 44.6 66 1.1 34
05:00 1014 29.94 844 24.92 6.9 44.3 67 1.1 34
05:05 1014 29.94 844 24.92 6.7 44.1 67 1.2 34.1
05:10 1014 29.94 844 24.92 6.6 43.9 68 1.1 34
05:15 1014 29.94 844 24.92 6.5 43.7 68 1.1 34
05:20 1014 29.94 844 24.92 6.4 43.6 69 1.1 34
05:25 1014 29.94 843 24.89 6.3 43.4 69 1.1 34
05:30 1014 29.94 843 24.89 6.3 43.4 69 1.1 33.9
05:35 1014 29.94 843 24.89 6.4 43.5 69 1.1 33.9
05:40 1014 29.94 844 24.92 6.4 43.6 69 1.1 34
05:45 1014 29.94 844 24.92 6.3 43.3 69 1 33.8
05:50 1014 29.94 844 24.92 6.3 43.3 69 1 33.7
05:55 1015 29.97 844 24.92 6.3 43.3 68 0.9 33.6
06:00 1015 29.97 844 24.92 6.1 43 69 0.8 33.5
06:05 1015 29.97 844 24.92 6 42.8 69 0.7 33.3
06:10 1015 29.97 844 24.92 5.7 42.3 70 0.7 33.2
06:15 1015 29.97 844 24.92 5.6 42 70 0.6 33.1
06:20 1015 29.97 844 24.92 5.5 41.9 71 0.6 33.1
06:25 1015 29.97 844 24.92 5.5 42 71 0.6 33.1
06:30 1015 29.97 844 24.92 5.6 42.1 71 0.7 33.3
06:35 1015 29.97 844 24.92 5.9 42.5 69 0.7 33.3
06:40 1015 29.97 844 24.92 5.9 42.6 69 0.7 33.3
06:45 1015 29.97 844 24.92 5.9 42.7 68 0.5 33
06:50 1015 29.97 844 24.92 6.1 43 67 0.4 32.8
06:55 1015 29.97 844 24.92 6.2 43.2 66 0.5 32.9
07:00 1015 29.97 844 24.92 6.3 43.3 67 0.6 33
07:05 1015 29.97 844 24.92 6.4 43.4 66 0.6 33
07:10 1015 29.97 844 24.92 6.4 43.6 66 0.7 33.2
07:15 1015 29.97 844 24.92 6.5 43.8 66 0.7 33.3
07:20 1015 29.97 844 24.92 6.8 44.2 65 0.8 33.4
07:25 1015 29.97 844 24.92 6.9 44.5 66 0.9 33.7
07:30 1015 29.97 844 24.92 7 44.6 66 1 33.8
07:35 1015 29.97 844 24.92 7.1 44.8 66 1.2 34.1
07:40 1015 29.97 844 24.92 7.4 45.3 65 1.2 34.1
07:45 1015 29.97 844 24.92 7.7 45.8 64 1.3 34.4
07:50 1015 29.97 844 24.92 8 46.4 62 1.2 34.2
07:55 1015 29.97 844 24.92 8.2 46.8 62 1.3 34.4
08:00 1015 29.97 844 24.92 8.7 47.7 60 1.4 34.4
08:05 1015 29.97 844 24.92 9.3 48.7 58 1.4 34.5
08:10 1015 29.97 844 24.92 9.6 49.3 56 1.4 34.6
08:15 1015 29.97 844 24.92 10.2 50.4 54 1.5 34.6
08:20 1015 29.97 844 24.92 10.6 51.1 53 1.3 34.4
08:25 1015 29.97 844 24.92 10.9 51.5 52 1.3 34.4
08:30 1015 29.97 844 24.92 11 51.8 53 1.7 35.1
08:35 1015 29.97 844 24.92 10.9 51.6 52 1.5 34.7
08:40 1015 29.97 844 24.92 11.1 52 52 1.6 34.8
08:45 1015 29.97 844 24.92 11.6 52.8 50 1.6 34.9
08:50 1015 29.97 844 24.92 11.9 53.4 48 1.3 34.3
08:55 1015 29.97 844 24.92 11.9 53.5 46 0.7 33.3
09:00 1015 29.97 844 24.92 12 53.7 46 0.7 33.3
09:05 1015 29.97 844 24.92 12.4 54.4 45 0.9 33.7
09:10 1015 29.97 844 24.92 12.7 54.9 43 0.5 33
09:15 1015 29.97 844 24.92 12.5 54.4 44 0.6 33
09:20 1015 29.97 844 24.92 12.7 54.8 43 0.6 33
09:25 1015 29.97 844 24.92 13.2 55.7 41 0.4 32.8
09:30 1015 29.97 844 24.92 13.4 56.1 41 0.4 32.6
09:35 1015 29.97 844 24.92 13.5 56.4 40 0.4 32.7
09:40 1015 29.97 844 24.92 13.6 56.6 40 0.5 32.9
09:45 1015 29.97 844 24.92 13.6 56.4 40 0.2 32.4
09:50 1015 29.97 844 24.92 13.9 57.1 40 0.6 33
09:55 1015 29.97 844 24.92 14.3 57.7 39 0.5 33
10:00 1015 29.97 844 24.92 13.9 57 41 0.8 33.5
10:05 1015 29.97 844 24.92 13.6 56.6 42 1 33.8
10:10 1015 29.97 844 24.92 13.7 56.7 40 0.6 33.1
10:15 1015 29.97 844 24.92 14.1 57.3 39 0.6 33
10:20 1015 29.97 844 24.92 14.2 57.6 39 0.4 32.7
10:25 1015 29.97 844 24.92 14.7 58.4 37 0.3 32.5
10:30 1015 29.97 844 24.92 15.3 59.5 36 0.4 32.7
10:35 1015 29.97 844 24.92 15 59 38 0.8 33.4
10:40 1015 29.97 844 24.92 14 57.2 41 1 33.7
10:45 1015 29.97 844 24.92 14.2 57.6 39 0.6 33.2
10:50 1015 29.97 844 24.92 14.8 58.6 38 0.6 33
10:55 1015 29.97 844 24.92 15 59 37 0.6 33.1
11:00 1015 29.97 844 24.92 15.1 59.1 36 0.2 32.4
11:05 1015 29.97 844 24.92 15.4 59.7 35 0.2 32.3
11:10 1015 29.97 844 24.92 15.1 59.1 36 0.1 32.2
11:15 1015 29.97 844 24.92 15.4 59.7 35 -0 32
11:20 1015 29.97 844 24.92 15.1 59.2 35 -0.2 31.7
11:25 1015 29.97 844 24.92 15.5 59.8 34 -0.1 31.8
11:30 1015 29.97 844 24.92 15.8 60.5 34 -0.1 31.9
11:35 1015 29.97 844 24.92 16 60.8 34 0.1 32.2
11:40 1014 29.94 844 24.92 16.3 61.3 34 0.4 32.8
11:45 1014 29.94 844 24.92 15.9 60.7 34 0 32
11:50 1014 29.94 844 24.92 16.3 61.3 33 -0 32
11:55 1014 29.94 844 24.92 16.8 62.2 31 -0.1 31.7
12:00 1014 29.94 844 24.92 16.5 61.7 34 0.6 33.1
12:05 1014 29.94 844 24.92 16 60.9 34 0.4 32.7
12:10 1014 29.94 844 24.92 16.2 61.1 33 0.1 32.1
12:15 1014 29.94 844 24.92 16.6 61.8 31 -0.6 30.9
12:20 1014 29.94 843 24.89 15.9 60.6 33 -0.2 31.6
12:25 1014 29.94 843 24.89 16.3 61.3 31 -0.6 31
12:30 1014 29.94 843 24.89 16.8 62.2 31 -0.3 31.4
12:35 1014 29.94 843 24.89 16.6 61.8 32 -0 31.9
12:40 1014 29.94 843 24.89 17.4 63.3 27 -1.9 28.6
12:45 1014 29.94 843 24.89 17.6 63.6 28 -1.2 29.8
12:50 1014 29.94 843 24.89 17.5 63.5 27 -1.6 29.1
12:55 1014 29.94 843 24.89 17.2 62.9 28 -1.5 29.3
13:00 1014 29.94 843 24.89 17.2 63 27 -1.8 28.8
13:05 1014 29.94 843 24.89 17.7 63.8 27 -1.5 29.3
13:10 1014 29.94 843 24.89 17.3 63.1 27 -1.6 29.1
13:15 1014 29.94 843 24.89 17.4 63.4 26 -2.1 28.3
13:20 1014 29.94 843 24.89 17.8 64 26 -1.6 29
13:25 1014 29.94 843 24.89 17.8 64 29 -0.4 31.3
13:30 1014 29.94 843 24.89 17.6 63.7 29 -0.7 30.7
13:35 1014 29.94 843 24.89 16.9 62.4 30 -0.5 31
13:40 1014 29.94 843 24.89 16.9 62.5 31 -0.3 31.5
13:45 1014 29.94 843 24.89 16.6 61.9 31 -0.6 30.9
13:50 1014 29.94 843 24.89 16.4 61.4 31 -0.8 30.5
13:55 1014 29.94 843 24.89 16.1 61 31 -0.8 30.5
14:00 1014 29.94 843 24.89 16.4 61.4 31 -0.8 30.6
14:05 1014 29.94 843 24.89 16.7 62 30 -0.8 30.6
14:10 1014 29.94 843 24.89 17.5 63.6 29 -0.5 31
14:15 1014 29.94 843 24.89 17.4 63.4 29 -0.7 30.7
14:20 1014 29.94 843 24.89 17.1 62.9 28 -1.2 29.8
14:25 1014 29.94 843 24.89 17.2 63 27 -1.6 29
14:30 1014 29.94 843 24.89 17.3 63.2 27 -1.6 29.1
14:35 1014 29.94 843 24.89 16.9 62.4 30 -0.7 30.7
14:40 1014 29.94 843 24.89 16.8 62.2 29 -1.1 30
14:45 1014 29.94 843 24.89 17.2 63 29 -0.8 30.5
14:50 1013 29.91 843 24.89 16.7 62 30 -0.7 30.7
14:55 1013 29.91 843 24.89 16.1 60.9 32 -0.4 31.3
15:00 1013 29.91 843 24.89 15.3 59.5 33 -0.7 30.7
15:05 1013 29.91 843 24.89 15.9 60.6 31 -1 30.2
15:10 1013 29.91 843 24.89 16.8 62.3 31 -0.4 31.4
15:15 1013 29.91 843 24.89 16.8 62.3 31 -0.2 31.6
15:20 1013 29.91 843 24.89 17.3 63.1 29 -0.7 30.7
15:25 1013 29.91 843 24.89 16.3 61.3 31 -0.7 30.8
15:30 1013 29.91 843 24.89 15.5 59.8 32 -1 30.3
15:35 1013 29.91 843 24.89 15.9 60.7 32 -0.8 30.5
15:40 1013 29.91 843 24.89 16.6 61.9 30 -1.1 30
15:45 1013 29.91 843 24.89 16.8 62.2 29 -1.2 29.9
15:50 1013 29.91 842 24.86 16.1 61 31 -0.9 30.3
15:55 1013 29.91 842 24.86 15.6 60 31 -1.2 29.8
16:00 1013 29.91 842 24.86 15.9 60.6 30 -1.5 29.3
16:05 1013 29.91 842 24.86 15.9 60.6 31 -1.1 30
16:10 1013 29.91 842 24.86 16.5 61.8 29 -1.2 29.8
16:15 1013 29.91 842 24.86 16.4 61.6 31 -0.8 30.5
16:20 1013 29.91 842 24.86 16.1 61 30 -1.2 29.9
16:25 1013 29.91 842 24.86 17.1 62.7 29 -0.8 30.5
16:30 1013 29.91 842 24.86 17.4 63.3 29 -0.8 30.6
16:35 1013 29.91 842 24.86 17.9 64.2 29 -0.4 31.3
16:40 1013 29.91 842 24.86 18.3 64.9 28 -0.4 31.2
16:45 1013 29.91 842 24.86 17.9 64.2 29 -0.2 31.6
16:50 1013 29.91 842 24.86 17.4 63.4 28 -0.9 30.3
16:55 1013 29.91 842 24.86 17.7 63.9 27 -1.1 29.9
17:00 1013 29.91 842 24.86 17.4 63.3 28 -1 30.2
17:05 1013 29.91 842 24.86 17.8 64 28 -0.8 30.6
17:10 1013 29.91 842 24.86 18.1 64.5 28 -0.7 30.8
17:15 1013 29.91 842 24.86 18.2 64.8 29 -0.2 31.7
17:20 1013 29.91 842 24.86 17.8 64.1 29 -0.3 31.5
17:25 1013 29.91 842 24.86 17.3 63.1 29 -0.6 30.9
17:30 1013 29.91 842 24.86 16.6 61.9 30 -0.9 30.4
17:35 1013 29.91 842 24.86 16.8 62.2 30 -0.8 30.6
17:40 1013 29.91 842 24.86 17.2 63 29 -1 30.2
17:45 1013 29.91 842 24.86 17.3 63.1 29 -1 30.3
17:50 1013 29.91 842 24.86 17 62.7 30 -0.5 31.1
17:55 1013 29.91 842 24.86 17 62.5 30 -0.6 30.9
18:00 1013 29.91 842 24.86 16.8 62.2 31 -0.1 31.8
18:05 1013 29.91 842 24.86 17 62.6 30 -0.4 31.3
18:10 1013 29.91 842 24.86 17.3 63.1 31 -0.1 31.8
18:15 1013 29.91 842 24.86 16.9 62.5 30 -0.6 30.9
18:20 1013 29.91 842 24.86 16.6 62 31 -0.6 31
18:25 1013 29.91 842 24.86 16.5 61.8 31 -0.6 31
18:30 1013 29.91 842 24.86 16.5 61.7 31 -0.7 30.7
18:35 1013 29.91 842 24.86 16.3 61.3 31 -0.8 30.6
18:40 1013 29.91 842 24.86 16.1 60.9 31 -0.8 30.6
18:45 1013 29.91 842 24.86 15.9 60.6 32 -0.9 30.4
18:50 1013 29.91 842 24.86 15.7 60.3 33 -0.5 31.2
18:55 1013 29.91 842 24.86 15.7 60.2 33 -0.4 31.2
19:00 1013 29.91 842 24.86 15.3 59.5 34 -0.6 30.9
19:05 1013 29.91 842 24.86 15.2 59.3 34 -0.6 30.9
19:10 1013 29.91 842 24.86 14.9 58.9 35 -0.5 31.1
19:15 1013 29.91 842 24.86 14.7 58.5 35 -0.4 31.2
19:20 1013 29.91 842 24.86 14.5 58.1 36 -0.2 31.6
19:25 1013 29.91 842 24.86 14.4 58 36 -0.5 31.1
19:30 1013 29.91 842 24.86 14.3 57.7 35 -0.7 30.7
19:35 1013 29.91 842 24.86 14.3 57.7 37 -0.3 31.5
19:40 1013 29.91 842 24.86 14.5 58.1 38 0.5 32.9
19:45 1013 29.91 842 24.86 14.3 57.8 40 1 33.9
19:50 1013 29.91 842 24.86 14.1 57.3 41 1.2 34.2
19:55 1013 29.91 842 24.86 13.9 57 42 1.2 34.2
20:00 1013 29.91 842 24.86 13.7 56.6 43 1.4 34.4
20:05 1013 29.91 842 24.86 13.4 56.1 43 1.3 34.3
20:10 1013 29.91 842 24.86 13.3 55.9 44 1.3 34.3
20:15 1013 29.91 842 24.86 13.4 56 44 1.3 34.3
20:20 1013 29.91 842 24.86 13.1 55.6 45 1.4 34.5
20:25 1013 29.91 842 24.86 12.9 55.3 46 1.5 34.7
20:30 1013 29.91 843 24.89 13.1 55.5 46 1.6 34.9
20:35 1013 29.91 843 24.89 13.1 55.5 45 1.6 34.8
20:40 1013 29.91 843 24.89 13.1 55.6 45 1.6 34.9
20:45 1013 29.91 843 24.89 13 55.5 46 1.6 35
20:50 1014 29.94 843 24.89 13 55.4 46 1.7 35.1
20:55 1014 29.94 843 24.89 13 55.5 46 1.7 35
21:00 1014 29.94 843 24.89 13 55.3 46 1.7 35
21:05 1014 29.94 843 24.89 12.9 55.2 46 1.5 34.7
21:10 1014 29.94 843 24.89 12.9 55.2 45 1.4 34.5
21:15 1014 29.94 843 24.89 12.4 54.4 51 2.7 36.9
21:20 1014 29.94 843 24.89 11.7 53 52 2.3 36.2
21:25 1014 29.94 843 24.89 11.6 53 52 2.1 35.8
21:30 1014 29.94 843 24.89 11.7 53.1 51 1.9 35.3
21:35 1014 29.94 843 24.89 11.8 53.2 51 2 35.5
21:40 1014 29.94 843 24.89 11.7 53.1 52 2.3 36.2
21:45 1014 29.94 843 24.89 11.6 52.9 53 2.5 36.5
21:50 1014 29.94 843 24.89 11.4 52.6 53 2.2 36
21:55 1014 29.94 843 24.89 11.5 52.7 52 2 35.6
22:00 1014 29.94 843 24.89 11.7 53.1 53 2.6 36.6
22:05 1014 29.94 843 24.89 11.4 52.5 54 2.4 36.3
22:10 1014 29.94 843 24.89 11.3 52.4 53 2.1 35.8
22:15 1014 29.94 844 24.92 11.3 52.3 54 2.3 36.2
22:20 1014 29.94 844 24.92 11.2 52.2 51 1.5 34.7
22:25 1014 29.94 844 24.92 11.4 52.5 51 1.7 35
22:30 1014 29.94 843 24.89 11.4 52.4 51 1.8 35.2
22:35 1014 29.94 843 24.89 11.2 52.1 53 1.9 35.5
22:40 1014 29.94 843 24.89 11 51.7 54 2 35.6
22:45 1014 29.94 843 24.89 10.8 51.4 55 2.1 35.7
22:50 1014 29.94 843 24.89 10.7 51.2 54 1.9 35.4
22:55 1014 29.94 843 24.89 10.6 51.1 56 2.3 36.2
23:00 1014 29.94 843 24.89 10.3 50.5 59 2.6 36.7
23:05 1014 29.94 843 24.89 10 50 59 2.3 36.1
23:10 1014 29.94 843 24.89 10.1 50.2 58 2.1 35.9
23:15 1014 29.94 843 24.89 10.2 50.3 57 2 35.7
23:20 1014 29.94 843 24.89 10.4 50.6 56 2 35.6
23:25 1014 29.94 843 24.89 10.3 50.6 56 2.1 35.7
23:30 1014 29.94 843 24.89 10.3 50.5 57 2 35.7
23:35 1014 29.94 843 24.89 10.1 50.2 55 1.6 34.9
23:40 1014 29.94 843 24.89 10.2 50.3 54 1.3 34.3
23:45 1014 29.94 843 24.89 10.1 50.3 54 1.4 34.5
23:50 1014 29.94 843 24.89 9.9 49.8 56 1.4 34.6
23:55 1014 29.94 843 24.89 9.7 49.4 56 1.4 34.6
24:00 1014 29.94 843 24.89 9.5 49 57 1.3 34.4